sensor_id;sensor_type;location;lat;lon;timestamp;P1;durP1;ratioP1;P2;durP2;ratioP2
26512;SDS011;14186;53.822;10.152;2023-04-06T00:03:22;14.15;;;6.53;;
26512;SDS011;14186;53.822;10.152;2023-04-06T00:08:22;20.20;;;8.90;;
26512;SDS011;14186;53.822;10.152;2023-04-06T00:13:24;13.18;;;6.72;;
26512;SDS011;14186;53.822;10.152;2023-04-06T00:18:24;13.90;;;6.60;;
26512;SDS011;14186;53.822;10.152;2023-04-06T00:23:24;12.85;;;6.90;;
26512;SDS011;14186;53.822;10.152;2023-04-06T00:28:26;15.52;;;7.43;;
26512;SDS011;14186;53.822;10.152;2023-04-06T00:33:26;14.10;;;7.15;;
26512;SDS011;14186;53.822;10.152;2023-04-06T00:38:26;19.58;;;7.97;;
26512;SDS011;14186;53.822;10.152;2023-04-06T00:43:28;20.10;;;8.18;;
26512;SDS011;14186;53.822;10.152;2023-04-06T00:48:28;16.85;;;7.65;;
26512;SDS011;14186;53.822;10.152;2023-04-06T00:53:28;16.88;;;7.78;;
26512;SDS011;14186;53.822;10.152;2023-04-06T00:58:30;19.50;;;8.93;;
26512;SDS011;14186;53.822;10.152;2023-04-06T01:03:30;17.50;;;8.75;;
26512;SDS011;14186;53.822;10.152;2023-04-06T01:08:30;18.85;;;9.20;;
26512;SDS011;14186;53.822;10.152;2023-04-06T01:13:32;20.13;;;9.77;;
26512;SDS011;14186;53.822;10.152;2023-04-06T01:18:32;19.25;;;8.98;;
26512;SDS011;14186;53.822;10.152;2023-04-06T01:23:34;17.17;;;9.45;;
26512;SDS011;14186;53.822;10.152;2023-04-06T01:28:34;23.52;;;9.73;;
26512;SDS011;14186;53.822;10.152;2023-04-06T01:33:34;23.52;;;10.23;;
26512;SDS011;14186;53.822;10.152;2023-04-06T01:38:36;24.73;;;9.95;;
26512;SDS011;14186;53.822;10.152;2023-04-06T01:43:36;22.05;;;9.73;;
26512;SDS011;14186;53.822;10.152;2023-04-06T01:48:36;25.83;;;10.82;;
26512;SDS011;14186;53.822;10.152;2023-04-06T01:53:38;22.55;;;10.32;;
26512;SDS011;14186;53.822;10.152;2023-04-06T01:58:38;25.65;;;10.45;;
26512;SDS011;14186;53.822;10.152;2023-04-06T02:03:39;26.33;;;11.68;;
26512;SDS011;14186;53.822;10.152;2023-04-06T02:08:40;24.33;;;10.25;;
26512;SDS011;14186;53.822;10.152;2023-04-06T02:13:40;26.92;;;11.18;;
26512;SDS011;14186;53.822;10.152;2023-04-06T02:18:41;23.88;;;11.85;;
26512;SDS011;14186;53.822;10.152;2023-04-06T02:23:42;22.58;;;11.05;;
26512;SDS011;14186;53.822;10.152;2023-04-06T02:28:42;24.92;;;11.52;;
26512;SDS011;14186;53.822;10.152;2023-04-06T02:33:43;28.73;;;13.02;;
26512;SDS011;14186;53.822;10.152;2023-04-06T02:38:44;28.23;;;13.57;;
26512;SDS011;14186;53.822;10.152;2023-04-06T02:43:44;25.77;;;12.70;;
26512;SDS011;14186;53.822;10.152;2023-04-06T02:48:45;27.20;;;12.07;;
26512;SDS011;14186;53.822;10.152;2023-04-06T02:53:46;26.23;;;12.70;;
26512;SDS011;14186;53.822;10.152;2023-04-06T02:58:46;26.75;;;13.25;;
26512;SDS011;14186;53.822;10.152;2023-04-06T03:03:47;25.65;;;13.35;;
26512;SDS011;14186;53.822;10.152;2023-04-06T03:08:48;27.17;;;12.73;;
26512;SDS011;14186;53.822;10.152;2023-04-06T03:13:48;29.55;;;12.90;;
26512;SDS011;14186;53.822;10.152;2023-04-06T03:18:49;33.72;;;13.75;;
26512;SDS011;14186;53.822;10.152;2023-04-06T03:23:50;32.90;;;14.43;;
26512;SDS011;14186;53.822;10.152;2023-04-06T03:28:50;32.00;;;14.50;;
26512;SDS011;14186;53.822;10.152;2023-04-06T03:33:51;34.58;;;15.02;;
26512;SDS011;14186;53.822;10.152;2023-04-06T03:38:52;36.47;;;16.83;;
26512;SDS011;14186;53.822;10.152;2023-04-06T03:43:53;37.00;;;15.88;;
26512;SDS011;14186;53.822;10.152;2023-04-06T03:48:53;36.75;;;15.98;;
26512;SDS011;14186;53.822;10.152;2023-04-06T03:53:54;40.72;;;16.63;;
26512;SDS011;14186;53.822;10.152;2023-04-06T03:58:55;46.45;;;17.95;;
26512;SDS011;14186;53.822;10.152;2023-04-06T04:03:55;36.08;;;15.57;;
26512;SDS011;14186;53.822;10.152;2023-04-06T04:08:56;39.53;;;17.35;;
26512;SDS011;14186;53.822;10.152;2023-04-06T04:13:57;39.42;;;17.52;;
26512;SDS011;14186;53.822;10.152;2023-04-06T04:18:57;38.67;;;17.27;;
26512;SDS011;14186;53.822;10.152;2023-04-06T04:23:58;36.00;;;16.33;;
26512;SDS011;14186;53.822;10.152;2023-04-06T04:28:59;41.13;;;16.77;;
26512;SDS011;14186;53.822;10.152;2023-04-06T04:33:59;37.85;;;16.92;;
26512;SDS011;14186;53.822;10.152;2023-04-06T04:39:01;44.22;;;16.55;;
26512;SDS011;14186;53.822;10.152;2023-04-06T04:44:01;43.65;;;17.77;;
26512;SDS011;14186;53.822;10.152;2023-04-06T04:49:01;45.58;;;17.55;;
26512;SDS011;14186;53.822;10.152;2023-04-06T04:54:03;38.78;;;17.52;;
26512;SDS011;14186;53.822;10.152;2023-04-06T04:59:03;44.22;;;17.05;;
26512;SDS011;14186;53.822;10.152;2023-04-06T05:04:03;37.10;;;17.33;;
26512;SDS011;14186;53.822;10.152;2023-04-06T05:09:05;35.60;;;15.95;;
26512;SDS011;14186;53.822;10.152;2023-04-06T05:14:05;40.35;;;16.52;;
26512;SDS011;14186;53.822;10.152;2023-04-06T05:19:05;35.05;;;16.40;;
26512;SDS011;14186;53.822;10.152;2023-04-06T05:24:07;40.85;;;17.73;;
26512;SDS011;14186;53.822;10.152;2023-04-06T05:29:07;41.10;;;16.25;;
26512;SDS011;14186;53.822;10.152;2023-04-06T05:34:08;33.92;;;15.20;;
26512;SDS011;14186;53.822;10.152;2023-04-06T05:39:09;34.20;;;14.68;;
26512;SDS011;14186;53.822;10.152;2023-04-06T05:44:10;33.22;;;15.88;;
26512;SDS011;14186;53.822;10.152;2023-04-06T05:49:10;36.63;;;14.30;;
26512;SDS011;14186;53.822;10.152;2023-04-06T05:54:11;37.72;;;15.52;;
26512;SDS011;14186;53.822;10.152;2023-04-06T05:59:12;35.30;;;15.57;;
26512;SDS011;14186;53.822;10.152;2023-04-06T06:04:12;33.80;;;14.60;;
26512;SDS011;14186;53.822;10.152;2023-04-06T06:09:13;31.70;;;15.15;;
26512;SDS011;14186;53.822;10.152;2023-04-06T06:14:14;31.60;;;14.52;;
26512;SDS011;14186;53.822;10.152;2023-04-06T06:19:14;29.13;;;13.85;;
26512;SDS011;14186;53.822;10.152;2023-04-06T06:24:15;28.17;;;13.90;;
26512;SDS011;14186;53.822;10.152;2023-04-06T06:29:16;24.95;;;12.65;;
26512;SDS011;14186;53.822;10.152;2023-04-06T06:34:16;22.42;;;11.02;;
26512;SDS011;14186;53.822;10.152;2023-04-06T06:39:18;21.55;;;10.75;;
26512;SDS011;14186;53.822;10.152;2023-04-06T06:44:18;23.67;;;11.27;;
26512;SDS011;14186;53.822;10.152;2023-04-06T06:49:18;20.50;;;11.07;;
26512;SDS011;14186;53.822;10.152;2023-04-06T06:54:20;19.45;;;10.55;;
26512;SDS011;14186;53.822;10.152;2023-04-06T06:59:20;19.45;;;10.40;;
26512;SDS011;14186;53.822;10.152;2023-04-06T07:04:20;23.10;;;10.40;;
26512;SDS011;14186;53.822;10.152;2023-04-06T07:09:22;22.13;;;11.68;;
26512;SDS011;14186;53.822;10.152;2023-04-06T07:14:22;20.75;;;11.50;;
26512;SDS011;14186;53.822;10.152;2023-04-06T07:19:22;23.75;;;11.80;;
26512;SDS011;14186;53.822;10.152;2023-04-06T07:24:24;23.88;;;11.25;;
26512;SDS011;14186;53.822;10.152;2023-04-06T07:29:24;18.73;;;11.27;;
26512;SDS011;14186;53.822;10.152;2023-04-06T07:34:24;16.27;;;9.23;;
26512;SDS011;14186;53.822;10.152;2023-04-06T07:39:26;17.95;;;8.70;;
26512;SDS011;14186;53.822;10.152;2023-04-06T07:44:26;17.80;;;8.55;;
26512;SDS011;14186;53.822;10.152;2023-04-06T07:49:26;15.57;;;9.30;;
26512;SDS011;14186;53.822;10.152;2023-04-06T07:54:28;16.73;;;8.68;;
26512;SDS011;14186;53.822;10.152;2023-04-06T07:59:28;13.50;;;7.50;;
26512;SDS011;14186;53.822;10.152;2023-04-06T08:04:29;11.93;;;6.10;;
26512;SDS011;14186;53.822;10.152;2023-04-06T08:09:30;13.02;;;6.88;;
26512;SDS011;14186;53.822;10.152;2023-04-06T08:14:31;12.40;;;6.00;;
26512;SDS011;14186;53.822;10.152;2023-04-06T08:19:31;7.18;;;4.43;;
26512;SDS011;14186;53.822;10.152;2023-04-06T08:24:32;10.70;;;4.18;;
26512;SDS011;14186;53.822;10.152;2023-04-06T08:29:33;8.85;;;4.28;;
26512;SDS011;14186;53.822;10.152;2023-04-06T08:34:33;7.40;;;3.50;;
26512;SDS011;14186;53.822;10.152;2023-04-06T08:39:34;6.03;;;2.83;;
26512;SDS011;14186;53.822;10.152;2023-04-06T08:44:35;6.75;;;3.30;;
26512;SDS011;14186;53.822;10.152;2023-04-06T08:49:37;6.13;;;2.90;;
26512;SDS011;14186;53.822;10.152;2023-04-06T08:54:38;8.05;;;3.00;;
26512;SDS011;14186;53.822;10.152;2023-04-06T08:59:39;6.80;;;3.10;;
26512;SDS011;14186;53.822;10.152;2023-04-06T09:04:39;7.05;;;2.83;;
26512;SDS011;14186;53.822;10.152;2023-04-06T09:09:40;4.60;;;2.55;;
26512;SDS011;14186;53.822;10.152;2023-04-06T09:14:41;8.15;;;2.80;;
26512;SDS011;14186;53.822;10.152;2023-04-06T09:19:47;4.95;;;2.67;;
26512;SDS011;14186;53.822;10.152;2023-04-06T09:24:49;4.25;;;2.50;;
26512;SDS011;14186;53.822;10.152;2023-04-06T09:29:50;5.47;;;2.92;;
26512;SDS011;14186;53.822;10.152;2023-04-06T09:34:50;5.55;;;3.20;;
26512;SDS011;14186;53.822;10.152;2023-04-06T09:40:01;8.25;;;3.17;;
26512;SDS011;14186;53.822;10.152;2023-04-06T09:45:02;4.82;;;2.90;;
26512;SDS011;14186;53.822;10.152;2023-04-06T09:50:02;4.82;;;3.05;;
26512;SDS011;14186;53.822;10.152;2023-04-06T09:55:05;7.18;;;2.95;;
26512;SDS011;14186;53.822;10.152;2023-04-06T10:00:06;6.13;;;3.30;;
26512;SDS011;14186;53.822;10.152;2023-04-06T10:05:08;8.10;;;3.20;;
26512;SDS011;14186;53.822;10.152;2023-04-06T10:10:10;6.68;;;3.45;;
26512;SDS011;14186;53.822;10.152;2023-04-06T10:15:11;6.80;;;3.65;;
26512;SDS011;14186;53.822;10.152;2023-04-06T10:20:12;4.75;;;3.00;;
26512;SDS011;14186;53.822;10.152;2023-04-06T10:25:16;5.32;;;2.97;;
26512;SDS011;14186;53.822;10.152;2023-04-06T10:30:16;6.10;;;2.75;;
26512;SDS011;14186;53.822;10.152;2023-04-06T10:35:16;6.82;;;2.65;;
26512;SDS011;14186;53.822;10.152;2023-04-06T10:40:23;7.32;;;3.00;;
26512;SDS011;14186;53.822;10.152;2023-04-06T10:45:24;11.98;;;4.18;;
26512;SDS011;14186;53.822;10.152;2023-04-06T10:50:24;6.07;;;3.20;;
26512;SDS011;14186;53.822;10.152;2023-04-06T10:55:26;8.38;;;3.70;;
26512;SDS011;14186;53.822;10.152;2023-04-06T11:00:27;6.97;;;3.45;;
26512;SDS011;14186;53.822;10.152;2023-04-06T11:05:27;8.32;;;3.53;;
26512;SDS011;14186;53.822;10.152;2023-04-06T11:10:29;6.80;;;3.15;;
26512;SDS011;14186;53.822;10.152;2023-04-06T11:15:33;10.23;;;3.70;;
26512;SDS011;14186;53.822;10.152;2023-04-06T11:20:33;5.25;;;3.67;;
26512;SDS011;14186;53.822;10.152;2023-04-06T11:25:35;7.18;;;3.80;;
26512;SDS011;14186;53.822;10.152;2023-04-06T11:30:35;6.97;;;4.00;;
26512;SDS011;14186;53.822;10.152;2023-04-06T11:35:35;10.00;;;4.47;;
26512;SDS011;14186;53.822;10.152;2023-04-06T11:40:38;7.97;;;4.80;;
26512;SDS011;14186;53.822;10.152;2023-04-06T11:45:42;8.55;;;5.22;;
26512;SDS011;14186;53.822;10.152;2023-04-06T11:50:42;10.68;;;6.57;;
26512;SDS011;14186;53.822;10.152;2023-04-06T11:55:44;11.75;;;6.50;;
26512;SDS011;14186;53.822;10.152;2023-04-06T12:00:44;10.35;;;5.68;;
26512;SDS011;14186;53.822;10.152;2023-04-06T12:05:44;9.85;;;5.00;;
26512;SDS011;14186;53.822;10.152;2023-04-06T12:10:46;9.85;;;6.18;;
26512;SDS011;14186;53.822;10.152;2023-04-06T12:15:46;12.60;;;6.97;;
26512;SDS011;14186;53.822;10.152;2023-04-06T12:20:46;10.25;;;6.15;;
26512;SDS011;14186;53.822;10.152;2023-04-06T12:25:48;11.35;;;6.78;;
26512;SDS011;14186;53.822;10.152;2023-04-06T12:30:48;10.90;;;6.28;;
26512;SDS011;14186;53.822;10.152;2023-04-06T12:35:48;10.00;;;5.90;;
26512;SDS011;14186;53.822;10.152;2023-04-06T12:40:50;10.30;;;5.80;;
26512;SDS011;14186;53.822;10.152;2023-04-06T12:45:50;10.07;;;6.28;;
26512;SDS011;14186;53.822;10.152;2023-04-06T12:50:53;10.30;;;6.57;;
26512;SDS011;14186;53.822;10.152;2023-04-06T12:55:55;10.05;;;5.80;;
26512;SDS011;14186;53.822;10.152;2023-04-06T13:00:57;11.48;;;6.38;;
26512;SDS011;14186;53.822;10.152;2023-04-06T13:05:58;9.90;;;6.05;;
26512;SDS011;14186;53.822;10.152;2023-04-06T13:11:00;10.50;;;5.57;;
26512;SDS011;14186;53.822;10.152;2023-04-06T13:16:00;10.27;;;5.70;;
26512;SDS011;14186;53.822;10.152;2023-04-06T13:21:01;10.40;;;6.13;;
26512;SDS011;14186;53.822;10.152;2023-04-06T13:26:03;8.27;;;5.80;;
26512;SDS011;14186;53.822;10.152;2023-04-06T13:31:04;10.50;;;5.55;;
26512;SDS011;14186;53.822;10.152;2023-04-06T13:36:05;10.20;;;5.72;;
26512;SDS011;14186;53.822;10.152;2023-04-06T13:41:07;11.55;;;5.93;;
26512;SDS011;14186;53.822;10.152;2023-04-06T13:46:07;8.77;;;5.22;;
26512;SDS011;14186;53.822;10.152;2023-04-06T13:51:08;9.43;;;5.70;;
26512;SDS011;14186;53.822;10.152;2023-04-06T13:56:10;9.40;;;5.72;;
26512;SDS011;14186;53.822;10.152;2023-04-06T14:01:10;10.30;;;5.70;;
26512;SDS011;14186;53.822;10.152;2023-04-06T14:06:11;9.85;;;5.75;;
26512;SDS011;14186;53.822;10.152;2023-04-06T14:11:12;10.50;;;5.93;;
26512;SDS011;14186;53.822;10.152;2023-04-06T14:16:13;12.27;;;6.03;;
26512;SDS011;14186;53.822;10.152;2023-04-06T14:21:13;12.68;;;5.90;;
26512;SDS011;14186;53.822;10.152;2023-04-06T14:26:14;9.65;;;6.00;;
26512;SDS011;14186;53.822;10.152;2023-04-06T14:31:15;14.43;;;6.80;;
26512;SDS011;14186;53.822;10.152;2023-04-06T14:36:15;7.82;;;4.72;;
26512;SDS011;14186;53.822;10.152;2023-04-06T14:41:17;10.25;;;5.22;;
26512;SDS011;14186;53.822;10.152;2023-04-06T14:46:17;7.97;;;6.05;;
26512;SDS011;14186;53.822;10.152;2023-04-06T14:51:17;9.15;;;6.28;;
26512;SDS011;14186;53.822;10.152;2023-04-06T14:56:22;10.23;;;5.72;;
26512;SDS011;14186;53.822;10.152;2023-04-06T15:01:22;9.32;;;5.82;;
26512;SDS011;14186;53.822;10.152;2023-04-06T15:06:23;10.20;;;5.50;;
26512;SDS011;14186;53.822;10.152;2023-04-06T15:11:24;11.50;;;6.00;;
26512;SDS011;14186;53.822;10.152;2023-04-06T15:16:24;10.65;;;6.13;;
26512;SDS011;14186;53.822;10.152;2023-04-06T15:21:25;7.78;;;5.45;;
26512;SDS011;14186;53.822;10.152;2023-04-06T15:26:26;8.60;;;5.10;;
26512;SDS011;14186;53.822;10.152;2023-04-06T15:31:27;8.38;;;5.38;;
26512;SDS011;14186;53.822;10.152;2023-04-06T15:36:27;9.68;;;6.10;;
26512;SDS011;14186;53.822;10.152;2023-04-06T15:41:29;9.45;;;6.05;;
26512;SDS011;14186;53.822;10.152;2023-04-06T15:46:29;10.23;;;5.88;;
26512;SDS011;14186;53.822;10.152;2023-04-06T15:51:29;9.93;;;6.95;;
26512;SDS011;14186;53.822;10.152;2023-04-06T15:56:32;10.55;;;5.97;;
26512;SDS011;14186;53.822;10.152;2023-04-06T16:01:32;9.60;;;5.68;;
26512;SDS011;14186;53.822;10.152;2023-04-06T16:06:32;8.75;;;5.97;;
26512;SDS011;14186;53.822;10.152;2023-04-06T16:11:34;10.75;;;6.20;;
26512;SDS011;14186;53.822;10.152;2023-04-06T16:16:34;9.50;;;5.93;;
26512;SDS011;14186;53.822;10.152;2023-04-06T16:21:34;11.07;;;6.55;;
26512;SDS011;14186;53.822;10.152;2023-04-06T16:26:36;8.65;;;6.38;;
26512;SDS011;14186;53.822;10.152;2023-04-06T16:31:36;13.73;;;6.75;;
26512;SDS011;14186;53.822;10.152;2023-04-06T16:36:36;12.30;;;5.68;;
26512;SDS011;14186;53.822;10.152;2023-04-06T16:41:38;9.00;;;5.22;;
26512;SDS011;14186;53.822;10.152;2023-04-06T16:46:38;9.05;;;5.55;;
26512;SDS011;14186;53.822;10.152;2023-04-06T16:51:39;10.15;;;6.03;;
26512;SDS011;14186;53.822;10.152;2023-04-06T16:56:40;9.65;;;6.07;;
26512;SDS011;14186;53.822;10.152;2023-04-06T17:01:41;10.13;;;6.47;;
26512;SDS011;14186;53.822;10.152;2023-04-06T17:06:41;10.82;;;6.00;;
26512;SDS011;14186;53.822;10.152;2023-04-06T17:11:42;10.13;;;6.32;;
26512;SDS011;14186;53.822;10.152;2023-04-06T17:16:44;12.25;;;6.50;;
26512;SDS011;14186;53.822;10.152;2023-04-06T17:21:44;12.52;;;6.40;;
26512;SDS011;14186;53.822;10.152;2023-04-06T17:26:45;13.27;;;6.72;;
26512;SDS011;14186;53.822;10.152;2023-04-06T17:31:46;12.27;;;6.45;;
26512;SDS011;14186;53.822;10.152;2023-04-06T17:36:46;11.18;;;6.57;;
26512;SDS011;14186;53.822;10.152;2023-04-06T17:41:47;12.07;;;7.50;;
26512;SDS011;14186;53.822;10.152;2023-04-06T17:46:48;13.45;;;7.55;;
26512;SDS011;14186;53.822;10.152;2023-04-06T17:51:48;11.35;;;6.45;;
26512;SDS011;14186;53.822;10.152;2023-04-06T17:56:49;12.85;;;6.95;;
26512;SDS011;14186;53.822;10.152;2023-04-06T18:01:49;12.82;;;7.25;;
26512;SDS011;14186;53.822;10.152;2023-04-06T18:06:50;14.20;;;7.50;;
26512;SDS011;14186;53.822;10.152;2023-04-06T18:11:51;11.35;;;6.80;;
26512;SDS011;14186;53.822;10.152;2023-04-06T18:16:51;9.90;;;5.50;;
26512;SDS011;14186;53.822;10.152;2023-04-06T18:21:52;13.98;;;7.05;;
26512;SDS011;14186;53.822;10.152;2023-04-06T18:26:53;12.35;;;7.25;;
26512;SDS011;14186;53.822;10.152;2023-04-06T18:31:53;16.73;;;7.50;;
26512;SDS011;14186;53.822;10.152;2023-04-06T18:36:54;13.20;;;8.05;;
26512;SDS011;14186;53.822;10.152;2023-04-06T18:41:55;15.30;;;9.50;;
26512;SDS011;14186;53.822;10.152;2023-04-06T18:46:55;17.63;;;9.80;;
26512;SDS011;14186;53.822;10.152;2023-04-06T18:51:55;28.88;;;14.98;;
26512;SDS011;14186;53.822;10.152;2023-04-06T18:56:57;29.70;;;17.02;;
26512;SDS011;14186;53.822;10.152;2023-04-06T19:01:57;34.42;;;17.48;;
26512;SDS011;14186;53.822;10.152;2023-04-06T19:06:57;32.28;;;17.35;;
26512;SDS011;14186;53.822;10.152;2023-04-06T19:11:59;25.13;;;13.52;;
26512;SDS011;14186;53.822;10.152;2023-04-06T19:16:59;22.20;;;11.48;;
26512;SDS011;14186;53.822;10.152;2023-04-06T19:21:59;18.67;;;9.68;;
26512;SDS011;14186;53.822;10.152;2023-04-06T19:27:01;15.73;;;8.93;;
26512;SDS011;14186;53.822;10.152;2023-04-06T19:32:02;25.67;;;13.73;;
26512;SDS011;14186;53.822;10.152;2023-04-06T19:37:02;43.92;;;20.95;;
26512;SDS011;14186;53.822;10.152;2023-04-06T19:42:03;35.45;;;17.20;;
26512;SDS011;14186;53.822;10.152;2023-04-06T19:47:04;27.52;;;14.13;;
26512;SDS011;14186;53.822;10.152;2023-04-06T19:52:04;41.22;;;19.73;;
26512;SDS011;14186;53.822;10.152;2023-04-06T19:57:06;50.22;;;25.60;;
26512;SDS011;14186;53.822;10.152;2023-04-06T20:02:06;45.47;;;21.98;;
26512;SDS011;14186;53.822;10.152;2023-04-06T20:07:06;28.98;;;15.43;;
26512;SDS011;14186;53.822;10.152;2023-04-06T20:12:08;28.47;;;13.87;;
26512;SDS011;14186;53.822;10.152;2023-04-06T20:17:08;32.38;;;15.35;;
26512;SDS011;14186;53.822;10.152;2023-04-06T20:22:08;25.17;;;12.85;;
26512;SDS011;14186;53.822;10.152;2023-04-06T20:27:10;21.67;;;11.35;;
26512;SDS011;14186;53.822;10.152;2023-04-06T20:32:10;15.68;;;9.38;;
26512;SDS011;14186;53.822;10.152;2023-04-06T20:37:10;15.52;;;8.30;;
26512;SDS011;14186;53.822;10.152;2023-04-06T20:42:12;17.02;;;9.77;;
26512;SDS011;14186;53.822;10.152;2023-04-06T20:47:12;15.27;;;8.30;;
26512;SDS011;14186;53.822;10.152;2023-04-06T20:52:12;14.18;;;7.70;;
26512;SDS011;14186;53.822;10.152;2023-04-06T20:57:14;11.17;;;7.10;;
26512;SDS011;14186;53.822;10.152;2023-04-06T21:02:14;15.82;;;8.80;;
26512;SDS011;14186;53.822;10.152;2023-04-06T21:07:14;14.85;;;8.75;;
26512;SDS011;14186;53.822;10.152;2023-04-06T21:12:16;16.50;;;8.20;;
26512;SDS011;14186;53.822;10.152;2023-04-06T21:17:16;15.68;;;8.35;;
26512;SDS011;14186;53.822;10.152;2023-04-06T21:22:16;15.15;;;9.05;;
26512;SDS011;14186;53.822;10.152;2023-04-06T21:27:18;14.23;;;7.95;;
26512;SDS011;14186;53.822;10.152;2023-04-06T21:32:18;15.10;;;9.18;;
26512;SDS011;14186;53.822;10.152;2023-04-06T21:37:18;21.20;;;9.40;;
26512;SDS011;14186;53.822;10.152;2023-04-06T21:42:20;18.80;;;9.43;;
26512;SDS011;14186;53.822;10.152;2023-04-06T21:47:20;17.17;;;10.85;;
26512;SDS011;14186;53.822;10.152;2023-04-06T21:52:20;15.57;;;9.38;;
26512;SDS011;14186;53.822;10.152;2023-04-06T21:57:22;16.92;;;9.20;;
26512;SDS011;14186;53.822;10.152;2023-04-06T22:02:22;15.35;;;9.75;;
26512;SDS011;14186;53.822;10.152;2023-04-06T22:07:22;16.92;;;8.57;;
26512;SDS011;14186;53.822;10.152;2023-04-06T22:12:24;15.65;;;9.45;;
26512;SDS011;14186;53.822;10.152;2023-04-06T22:17:24;17.30;;;8.90;;
26512;SDS011;14186;53.822;10.152;2023-04-06T22:22:24;19.65;;;9.30;;
26512;SDS011;14186;53.822;10.152;2023-04-06T22:27:26;16.05;;;8.75;;
26512;SDS011;14186;53.822;10.152;2023-04-06T22:32:26;18.10;;;8.68;;
26512;SDS011;14186;53.822;10.152;2023-04-06T22:37:26;15.25;;;9.13;;
26512;SDS011;14186;53.822;10.152;2023-04-06T22:42:28;16.60;;;8.52;;
26512;SDS011;14186;53.822;10.152;2023-04-06T22:47:28;14.25;;;8.18;;
26512;SDS011;14186;53.822;10.152;2023-04-06T22:52:29;13.90;;;8.68;;
26512;SDS011;14186;53.822;10.152;2023-04-06T22:57:30;15.10;;;8.50;;
26512;SDS011;14186;53.822;10.152;2023-04-06T23:02:30;13.90;;;8.07;;
26512;SDS011;14186;53.822;10.152;2023-04-06T23:07:30;14.63;;;8.38;;
26512;SDS011;14186;53.822;10.152;2023-04-06T23:12:32;14.57;;;7.65;;
26512;SDS011;14186;53.822;10.152;2023-04-06T23:17:32;14.55;;;8.30;;
26512;SDS011;14186;53.822;10.152;2023-04-06T23:22:32;13.68;;;8.15;;
26512;SDS011;14186;53.822;10.152;2023-04-06T23:27:34;15.57;;;9.18;;
26512;SDS011;14186;53.822;10.152;2023-04-06T23:32:34;15.90;;;8.77;;
26512;SDS011;14186;53.822;10.152;2023-04-06T23:37:34;15.00;;;9.00;;
26512;SDS011;14186;53.822;10.152;2023-04-06T23:42:36;14.07;;;8.32;;
26512;SDS011;14186;53.822;10.152;2023-04-06T23:47:36;18.13;;;8.98;;
26512;SDS011;14186;53.822;10.152;2023-04-06T23:52:36;15.73;;;8.82;;
26512;SDS011;14186;53.822;10.152;2023-04-06T23:57:38;13.65;;;7.88;;
